createdAt,value
2023-10-24T00:00:59.843Z,100412.16
2023-10-24T00:03:26.368Z,100412.16
2023-10-24T00:05:53.284Z,100408.41
2023-10-24T00:08:19.736Z,100408.41
2023-10-24T00:10:46.683Z,100397.41
2023-10-24T00:13:13.593Z,100394.72
2023-10-24T00:15:40.031Z,100399.53
2023-10-24T00:18:06.948Z,100390.38
2023-10-24T00:20:33.386Z,100388.53
2023-10-24T00:22:59.833Z,100385.03
2023-10-24T00:25:26.305Z,100387.72
2023-10-24T00:27:52.807Z,100383.72
2023-10-24T00:30:19.809Z,100389.06
2023-10-24T00:32:50.991Z,100382.34
2023-10-24T00:35:18.738Z,100376.72
2023-10-24T00:37:45.290Z,100373.72
2023-10-24T00:40:12.342Z,100385.28
2023-10-24T00:42:38.835Z,100379.91
2023-10-24T00:45:06.893Z,100378.84
2023-10-24T00:47:34.183Z,100378.53
2023-10-24T00:50:00.806Z,100371.03
2023-10-24T00:52:27.744Z,100365.44
2023-10-24T00:54:54.795Z,100365.13
2023-10-24T00:57:21.782Z,100373.97
2023-10-24T00:59:48.710Z,100358.97
2023-10-24T01:02:15.449Z,100359.22
2023-10-24T01:04:42.163Z,100365.66
2023-10-24T01:07:08.853Z,100359.22
2023-10-24T01:09:35.662Z,100362.69
2023-10-24T01:12:03.089Z,100361.34
2023-10-24T01:14:29.639Z,100364.00
2023-10-24T01:16:56.371Z,100353.28
2023-10-24T01:19:23.028Z,100358.34
2023-10-24T01:21:49.580Z,100347.63
2023-10-24T01:24:18.079Z,100363.72
2023-10-24T01:26:45.266Z,100356.75
2023-10-24T01:29:11.902Z,100356.75
2023-10-24T01:31:38.685Z,100355.66
2023-10-24T01:34:05.462Z,100357.28
2023-10-24T01:36:31.994Z,100347.06
2023-10-24T01:38:58.418Z,100349.22
2023-10-24T01:41:24.911Z,100348.13
2023-10-24T01:43:53.009Z,100340.09
2023-10-24T01:46:19.610Z,100343.28
2023-10-24T01:48:46.140Z,100347.84
2023-10-24T01:51:12.636Z,100344.06
2023-10-24T01:53:39.067Z,100348.38
2023-10-24T01:56:05.772Z,100340.03
2023-10-24T01:58:32.256Z,100343.78
2023-10-24T02:00:58.778Z,100345.13
2023-10-24T02:03:25.292Z,100339.22
2023-10-24T02:05:51.752Z,100334.16
2023-10-24T02:08:18.289Z,100336.84
2023-10-24T02:10:45.027Z,100330.88
2023-10-24T02:13:12.007Z,100335.47
2023-10-24T02:15:38.687Z,100336.25
2023-10-24T02:18:05.327Z,100332.78
2023-10-24T02:20:31.861Z,100333.56
2023-10-24T02:22:58.409Z,100329.03
2023-10-24T02:25:24.930Z,100323.66
2023-10-24T02:27:53.656Z,100320.47
2023-10-24T02:30:20.162Z,100321.53
2023-10-24T02:32:46.770Z,100319.38
2023-10-24T02:35:13.308Z,100312.72
2023-10-24T02:37:39.881Z,100308.91
2023-10-24T02:40:09.058Z,100310.28
2023-10-24T02:42:35.991Z,100312.72
2023-10-24T02:45:02.619Z,100309.50
2023-10-24T02:47:29.313Z,100314.06
2023-10-24T02:49:56.307Z,100312.72
2023-10-24T02:52:22.881Z,100311.09
2023-10-24T02:54:50.214Z,100309.78
2023-10-24T02:57:17.604Z,100314.06
2023-10-24T02:59:44.135Z,100322.41
2023-10-24T03:02:10.607Z,100320.78
2023-10-24T03:04:37.188Z,100329.94
2023-10-24T03:07:04.179Z,100326.72
2023-10-24T03:09:30.760Z,100330.50
2023-10-24T03:11:57.218Z,100333.72
2023-10-24T03:14:24.101Z,100341.84
2023-10-24T03:16:50.632Z,100336.72
2023-10-24T03:19:17.337Z,100341.84
2023-10-24T03:21:43.859Z,100339.72
2023-10-24T03:24:10.809Z,100334.13
2023-10-24T03:26:37.610Z,100342.44
2023-10-24T03:29:04.198Z,100347.59
2023-10-24T03:31:31.537Z,100344.38
2023-10-24T03:33:58.062Z,100347.34
2023-10-24T03:36:24.829Z,100349.81
2023-10-24T03:38:51.269Z,100344.22
2023-10-24T03:41:18.042Z,100341.25
2023-10-24T03:43:50.457Z,100338.59
2023-10-24T03:46:17.151Z,100338.34
2023-10-24T03:48:43.802Z,100346.63
2023-10-24T03:51:10.433Z,100337.31
2023-10-24T03:53:36.908Z,100341.91
2023-10-24T03:56:03.364Z,100337.91
2023-10-24T03:58:30.544Z,100347.34
2023-10-24T04:01:05.440Z,100335.59
2023-10-24T04:03:32.817Z,100336.94
2023-10-24T04:05:59.356Z,100331.59
2023-10-24T04:08:25.787Z,100338.28
2023-10-24T04:10:52.265Z,100343.94
2023-10-24T04:13:18.770Z,100349.31
2023-10-24T04:15:45.246Z,100346.06
2023-10-24T04:18:11.714Z,100356.78
2023-10-24T04:20:42.973Z,100344.75
2023-10-24T04:23:15.394Z,100342.06
2023-10-24T04:25:41.881Z,100353.63
2023-10-24T04:28:08.399Z,100340.78
2023-10-24T04:30:35.069Z,100341.88
2023-10-24T04:33:01.888Z,100341.09
2023-10-24T04:35:28.520Z,100342.94
2023-10-24T04:37:55.427Z,100338.13
2023-10-24T04:40:22.031Z,100331.16
2023-10-24T04:42:51.398Z,100321.00
2023-10-24T04:45:18.065Z,100324.75
2023-10-24T04:47:44.568Z,100329.84
2023-10-24T04:50:12.248Z,100323.13
2023-10-24T04:52:38.796Z,100324.25
2023-10-24T04:55:06.112Z,100308.97
2023-10-24T04:57:32.986Z,100322.88
2023-10-24T04:59:59.991Z,100322.66
2023-10-24T05:02:26.574Z,100312.19
2023-10-24T05:04:53.096Z,100308.19
2023-10-24T05:07:19.605Z,100301.72
2023-10-24T05:09:46.121Z,100301.22
2023-10-24T05:12:12.521Z,100308.19
2023-10-24T05:14:39.014Z,100304.69
2023-10-24T05:17:06.098Z,100306.28
2023-10-24T05:19:32.878Z,100295.28
2023-10-24T05:21:59.325Z,100299.31
2023-10-24T05:24:25.744Z,100292.88
2023-10-24T05:26:52.189Z,100288.91
2023-10-24T05:29:18.617Z,100287.53
2023-10-24T05:31:45.145Z,100283.78
2023-10-24T05:34:11.834Z,100286.75
2023-10-24T05:36:38.507Z,100285.16
2023-10-24T05:39:04.992Z,100292.09
2023-10-24T05:41:31.433Z,100281.38
2023-10-24T05:43:57.935Z,100288.59
2023-10-24T05:46:24.550Z,100291.81
2023-10-24T05:48:51.096Z,100291.81
2023-10-24T05:51:25.245Z,100296.34
2023-10-24T05:53:51.748Z,100301.16
2023-10-24T05:56:18.285Z,100296.09
2023-10-24T05:58:45.824Z,100299.03
2023-10-24T06:01:12.996Z,100301.72
2023-10-24T06:03:39.734Z,100306.00
2023-10-24T06:06:06.471Z,100303.31
2023-10-24T06:08:32.867Z,100299.63
2023-10-24T06:11:01.068Z,100306.56
2023-10-24T06:13:28.389Z,100306.84
2023-10-24T06:15:55.027Z,100307.13
2023-10-24T06:18:23.256Z,100310.88
2023-10-24T06:20:51.653Z,100311.41
2023-10-24T06:23:18.275Z,100312.75
2023-10-24T06:25:44.770Z,100315.16
2023-10-24T06:28:12.924Z,100312.47
2023-10-24T06:30:40.605Z,100304.44
2023-10-24T06:33:07.115Z,100296.66
2023-10-24T06:35:33.607Z,100301.78
2023-10-24T06:38:00.138Z,100305.81
2023-10-24T06:40:26.662Z,100314.63
2023-10-24T06:42:53.188Z,100323.47
2023-10-24T06:45:19.723Z,100323.19
2023-10-24T06:47:47.071Z,100328.25
2023-10-24T06:50:13.749Z,100332.31
2023-10-24T06:52:43.261Z,100341.94
2023-10-24T06:55:10.429Z,100344.63
2023-10-24T06:57:37.118Z,100344.63
2023-10-24T07:00:04.176Z,100349.97
2023-10-24T07:02:32.433Z,100347.31
2023-10-24T07:04:59.166Z,100345.41
2023-10-24T07:07:26.808Z,100341.66
2023-10-24T07:09:53.440Z,100337.13
2023-10-24T07:12:20.089Z,100337.13
2023-10-24T07:14:46.606Z,100328.78
2023-10-24T07:17:13.070Z,100328.00
2023-10-24T07:19:39.553Z,100334.97
2023-10-24T07:22:05.986Z,100339.50
2023-10-24T07:24:32.544Z,100337.13
2023-10-24T07:26:59.154Z,100322.38
2023-10-24T07:29:27.937Z,100335.50
2023-10-24T07:31:54.585Z,100330.94
2023-10-24T07:34:21.267Z,100333.34
2023-10-24T07:36:48.770Z,100334.16
2023-10-24T07:39:15.739Z,100336.03
2023-10-24T07:41:42.243Z,100341.09
2023-10-24T07:44:08.844Z,100325.56
2023-10-24T07:46:35.380Z,100313.47
2023-10-24T07:49:01.929Z,100305.97
2023-10-24T07:51:32.664Z,100309.94
2023-10-24T07:53:59.248Z,100311.78
2023-10-24T07:56:25.675Z,100319.00
2023-10-24T07:58:52.226Z,100321.44
2023-10-24T08:01:22.121Z,100320.06
2023-10-24T08:03:48.728Z,100312.28
2023-10-24T08:06:16.503Z,100310.91
2023-10-24T08:08:44.384Z,100299.88
2023-10-24T08:11:11.230Z,100301.47
2023-10-24T08:13:37.682Z,100305.69
2023-10-24T08:16:04.405Z,100297.09
2023-10-24T08:18:31.086Z,100293.84
2023-10-24T08:20:57.773Z,100292.16
2023-10-24T08:23:24.270Z,100288.16
2023-10-24T08:25:50.792Z,100287.84
2023-10-24T08:28:17.278Z,100297.19
2023-10-24T08:30:43.797Z,100298.75
2023-10-24T08:33:10.368Z,100299.28
2023-10-24T08:35:37.051Z,100302.19
2023-10-24T08:38:04.973Z,100299.47
2023-10-24T08:40:31.672Z,100295.56
2023-10-24T08:42:58.182Z,100291.13
2023-10-24T08:45:25.707Z,100311.50
2023-10-24T08:47:55.059Z,100314.00
2023-10-24T08:50:21.750Z,100324.22
2023-10-24T08:52:48.232Z,100323.19
2023-10-24T08:55:14.798Z,100338.50
2023-10-24T08:57:43.241Z,100342.81
2023-10-24T09:00:14.710Z,100337.19
2023-10-24T09:02:46.084Z,100337.41
2023-10-24T09:05:16.869Z,100332.78
2023-10-24T09:07:43.548Z,100337.25
2023-10-24T09:10:10.579Z,100331.59
2023-10-24T09:12:40.179Z,100336.09
2023-10-24T09:15:10.267Z,100334.88
2023-10-24T09:17:37.324Z,100339.19
2023-10-24T09:20:05.800Z,100340.38
2023-10-24T09:22:33.396Z,100349.88
2023-10-24T09:25:03.080Z,100342.34
2023-10-24T09:27:29.889Z,100344.38
2023-10-24T09:29:56.434Z,100338.69
2023-10-24T09:32:22.916Z,100325.06
2023-10-24T09:34:50.158Z,100309.53
2023-10-24T09:37:17.511Z,100309.44
2023-10-24T09:39:58.679Z,100322.38
2023-10-24T09:42:34.604Z,100312.38
2023-10-24T09:45:07.006Z,100309.75
2023-10-24T09:47:35.142Z,100302.56
2023-10-24T09:50:03.433Z,100307.69
2023-10-24T09:52:30.933Z,100294.63
2023-10-24T09:54:59.584Z,100288.38
2023-10-24T09:57:27.698Z,100296.03
2023-10-24T09:59:56.355Z,100294.63
2023-10-24T10:02:27.352Z,100290.16
2023-10-24T10:04:54.734Z,100300.06
2023-10-24T10:07:25.458Z,100299.63
2023-10-24T10:09:53.102Z,100306.41
2023-10-24T10:12:19.841Z,100317.69
2023-10-24T10:15:24.131Z,100312.50
2023-10-24T10:17:56.630Z,100307.22
2023-10-24T10:21:00.470Z,100305.78
2023-10-24T10:23:32.762Z,100311.47
2023-10-24T10:26:06.959Z,100313.16
2023-10-24T10:28:48.513Z,100322.63
2023-10-24T10:32:38.553Z,100317.22
2023-10-24T10:34:35.737Z,100312.44
2023-10-24T10:37:03.014Z,100309.16
2023-10-24T10:39:30.278Z,100305.09
2023-10-24T10:41:57.623Z,100306.91
2023-10-24T10:44:39.886Z,100297.91
2023-10-24T10:47:12.559Z,100291.16
2023-10-24T10:49:58.093Z,100291.94
2023-10-24T10:52:52.302Z,100292.56
2023-10-24T10:55:44.343Z,100297.97
2023-10-24T10:58:25.009Z,100301.53
2023-10-24T11:01:01.387Z,100296.75
2023-10-24T11:03:42.427Z,100295.34
2023-10-24T11:06:16.872Z,100293.34
2023-10-24T11:09:07.792Z,100279.72
2023-10-24T11:11:34.755Z,100284.78
2023-10-24T11:14:27.563Z,100281.31
2023-10-24T11:16:54.479Z,100295.16
2023-10-24T11:19:25.888Z,100289.88
2023-10-24T11:21:54.212Z,100285.16
2023-10-24T11:24:22.819Z,100289.47
2023-10-24T11:26:55.896Z,100286.25
2023-10-24T11:29:22.740Z,100278.00
2023-10-24T11:31:51.762Z,100290.44
2023-10-24T11:34:19.690Z,100281.38
2023-10-24T11:36:47.057Z,100278.97
2023-10-24T11:39:15.336Z,100281.19
2023-10-24T11:41:43.215Z,100282.84
2023-10-24T11:44:13.272Z,100276.38
2023-10-24T11:46:40.920Z,100275.56
2023-10-24T11:49:09.313Z,100276.06
2023-10-24T11:51:37.583Z,100285.81
2023-10-24T11:54:05.584Z,100264.69
2023-10-24T11:56:32.916Z,100277.13
2023-10-24T11:59:00.831Z,100270.75
2023-10-24T12:01:32.530Z,100270.34
2023-10-24T12:04:01.477Z,100266.56
2023-10-24T12:06:29.229Z,100280.84
2023-10-24T12:08:56.569Z,100272.78
2023-10-24T12:11:23.681Z,100270.34
2023-10-24T12:13:50.751Z,100273.31
2023-10-24T12:16:17.589Z,100280.66
2023-10-24T12:18:45.057Z,100269.97
2023-10-24T12:21:13.210Z,100269.72
2023-10-24T12:23:40.135Z,100273.97
2023-10-24T12:26:06.941Z,100271.63
2023-10-24T12:28:34.215Z,100274.91
2023-10-24T12:31:01.138Z,100270.19
2023-10-24T12:33:29.463Z,100270.78
2023-10-24T12:36:01.019Z,100271.56
2023-10-24T12:38:28.946Z,100273.25
2023-10-24T12:40:55.836Z,100270.91
2023-10-24T12:43:22.460Z,100271.50
2023-10-24T12:45:49.090Z,100265.03
2023-10-24T12:48:17.728Z,100274.91
2023-10-24T12:50:45.733Z,100275.47
2023-10-24T12:53:12.294Z,100272.28
2023-10-24T12:55:39.557Z,100268.09
2023-10-24T12:58:06.049Z,100264.88
2023-10-24T13:00:33.181Z,100253.44
2023-10-24T13:03:07.867Z,100260.44
2023-10-24T13:05:42.182Z,100262.25
2023-10-24T13:08:08.922Z,100252.66
2023-10-24T13:10:35.698Z,100252.50
2023-10-24T13:13:03.224Z,100260.25
2023-10-24T13:15:29.889Z,100261.91
2023-10-24T13:17:56.474Z,100276.91
2023-10-24T13:20:22.964Z,100276.91
2023-10-24T13:22:49.902Z,100272.38
2023-10-24T13:25:16.669Z,100268.00
2023-10-24T13:27:43.157Z,100275.69
2023-10-24T13:30:10.037Z,100273.31
2023-10-24T13:32:36.714Z,100270.97
2023-10-24T13:37:32.853Z,100294.19
2023-10-24T13:39:59.374Z,100287.72
2023-10-24T13:42:25.825Z,100288.97
2023-10-24T13:44:52.440Z,100280.94
2023-10-24T13:47:18.963Z,100260.53
2023-10-24T13:49:45.583Z,100264.22
2023-10-24T13:52:14.823Z,100259.00
2023-10-24T13:54:41.487Z,100272.38
2023-10-24T13:57:08.349Z,100257.94
2023-10-24T13:59:35.026Z,100259.59
2023-10-24T14:02:01.607Z,100263.66
2023-10-24T14:04:28.239Z,100274.47
2023-10-24T14:06:56.362Z,100265.03
2023-10-24T14:09:22.850Z,100269.81
2023-10-24T14:11:49.372Z,100265.25
2023-10-24T14:14:17.277Z,100275.19
2023-10-24T14:16:44.245Z,100285.44
2023-10-24T14:19:11.462Z,100273.09
2023-10-24T14:21:37.960Z,100282.03
2023-10-24T14:24:04.826Z,100269.16
2023-10-24T14:26:31.746Z,100261.41
2023-10-24T14:28:58.526Z,100261.41
2023-10-24T14:31:25.484Z,100262.00
2023-10-24T14:33:51.988Z,100266.34
2023-10-24T14:36:18.595Z,100265.03
2023-10-24T14:38:45.156Z,100259.38
2023-10-24T14:41:11.721Z,100260.97
2023-10-24T14:43:38.911Z,100251.75
2023-10-24T14:46:05.698Z,100254.00
2023-10-24T14:48:34.952Z,100254.09
2023-10-24T14:51:04.192Z,100262.56
2023-10-24T14:53:30.676Z,100261.91
2023-10-24T14:55:57.379Z,100251.16
2023-10-24T14:58:24.345Z,100251.09
2023-10-24T15:00:51.032Z,100255.88
2023-10-24T15:03:17.950Z,100257.69
2023-10-24T15:05:44.714Z,100258.50
2023-10-24T15:08:11.655Z,100250.50
2023-10-24T15:10:38.422Z,100254.81
2023-10-24T15:13:05.061Z,100254.59
2023-10-24T15:15:31.500Z,100247.34
2023-10-24T15:17:58.151Z,100252.00
2023-10-24T15:20:24.752Z,100247.25
2023-10-24T15:22:51.385Z,100251.59
2023-10-24T15:25:19.316Z,100250.00
2023-10-24T15:27:46.635Z,100251.19
2023-10-24T15:30:17.442Z,100254.44
2023-10-24T15:32:43.952Z,100257.41
2023-10-24T15:35:11.475Z,100251.47
2023-10-24T15:37:38.214Z,100248.56
2023-10-24T15:40:06.050Z,100254.44
2023-10-24T15:42:34.935Z,100253.44
2023-10-24T15:45:04.816Z,100257.19
2023-10-24T15:47:39.295Z,100248.63
2023-10-24T15:50:08.261Z,100249.97
2023-10-24T15:52:35.151Z,100250.75
2023-10-24T15:55:17.431Z,100243.19
2023-10-24T15:57:59.191Z,100254.25
2023-10-24T16:00:29.123Z,100253.44
2023-10-24T16:02:55.794Z,100252.13
2023-10-24T16:05:24.240Z,100253.00
2023-10-24T16:07:50.771Z,100248.22
2023-10-24T16:10:17.392Z,100250.38
2023-10-24T16:12:43.904Z,100242.13
2023-10-24T16:15:11.566Z,100245.16
2023-10-24T16:17:39.875Z,100243.34
2023-10-24T16:20:07.447Z,100241.81
2023-10-24T16:22:33.954Z,100247.75
2023-10-24T16:25:00.475Z,100247.31
2023-10-24T16:27:27.042Z,100254.13
2023-10-24T16:29:53.682Z,100250.72
2023-10-24T16:32:20.615Z,100258.81
2023-10-24T16:34:47.285Z,100254.31
2023-10-24T16:37:13.785Z,100250.59
2023-10-24T16:39:40.289Z,100256.03
2023-10-24T16:42:06.907Z,100261.44
2023-10-24T16:44:34.629Z,100261.22
2023-10-24T16:47:01.287Z,100261.25
2023-10-24T16:49:29.392Z,100264.81
2023-10-24T16:51:57.448Z,100271.59
2023-10-24T16:54:24.098Z,100268.75
2023-10-24T16:56:50.865Z,100272.25
2023-10-24T16:59:17.508Z,100270.41
2023-10-24T17:01:44.200Z,100273.94
2023-10-24T17:04:10.817Z,100277.78
2023-10-24T17:06:38.047Z,100283.34
2023-10-24T17:09:06.620Z,100280.44
2023-10-24T17:11:33.370Z,100280.47
2023-10-24T17:14:00.024Z,100280.78
2023-10-24T17:16:26.574Z,100279.72
2023-10-24T17:18:53.144Z,100285.41
2023-10-24T17:21:20.045Z,100282.50
2023-10-24T17:23:47.364Z,100283.56
2023-10-24T17:26:15.517Z,100279.59
2023-10-24T17:28:42.058Z,100291.09
2023-10-24T17:31:08.761Z,100290.06
2023-10-24T17:33:35.480Z,100293.28
2023-10-24T17:36:03.680Z,100285.81
2023-10-24T17:38:31.252Z,100288.78
2023-10-24T17:40:59.428Z,100291.50
2023-10-24T17:43:26.269Z,100288.59
2023-10-24T17:45:53.086Z,100285.94
2023-10-24T17:48:19.605Z,100289.97
2023-10-24T17:50:46.164Z,100294.53
2023-10-24T17:53:12.741Z,100298.53
2023-10-24T17:55:40.824Z,100297.44
2023-10-24T17:58:07.775Z,100303.31
2023-10-24T18:00:35.868Z,100303.56
2023-10-24T18:03:02.844Z,100299.56
2023-10-24T18:05:30.220Z,100298.50
2023-10-24T18:07:56.912Z,100297.97
2023-10-24T18:10:23.912Z,100299.84
2023-10-24T18:12:51.391Z,100308.94
2023-10-24T18:15:18.672Z,100309.44
2023-10-24T18:17:45.502Z,100317.47
2023-10-24T18:20:12.782Z,100306.00
2023-10-24T18:22:39.888Z,100313.19
2023-10-24T18:25:10.541Z,100303.56
2023-10-24T18:27:37.603Z,100303.56
2023-10-24T18:30:06.376Z,100307.59
2023-10-24T18:32:34.438Z,100308.41
2023-10-24T18:35:00.951Z,100307.06
2023-10-24T18:37:27.391Z,100303.56
2023-10-24T18:39:54.246Z,100306.78
2023-10-24T18:42:26.308Z,100305.19
2023-10-24T18:44:53.775Z,100303.88
2023-10-24T18:47:20.298Z,100308.97
2023-10-24T18:49:48.404Z,100311.91
2023-10-24T18:52:15.334Z,100310.59
2023-10-24T18:54:43.083Z,100320.78
2023-10-24T18:57:10.291Z,100316.50
2023-10-24T18:59:36.993Z,100314.88
2023-10-24T19:02:03.704Z,100320.78
2023-10-24T19:04:30.259Z,100323.75
2023-10-24T19:06:56.701Z,100323.22
2023-10-24T19:09:23.225Z,100321.31
2023-10-24T19:11:50.071Z,100321.06
2023-10-24T19:14:17.619Z,100324.00
2023-10-24T19:16:44.487Z,100322.38
2023-10-24T19:19:11.727Z,100317.88
2023-10-24T19:21:38.805Z,100328.31
2023-10-24T19:24:05.831Z,100321.38
2023-10-24T19:26:32.534Z,100317.88
2023-10-24T19:28:59.279Z,100324.28
2023-10-24T19:31:26.040Z,100329.13
2023-10-24T19:33:52.700Z,100335.03
2023-10-24T19:36:22.044Z,100331.03
2023-10-24T19:38:48.712Z,100334.25
2023-10-24T19:41:15.763Z,100333.72
2023-10-24T19:43:42.487Z,100332.38
2023-10-24T19:46:09.812Z,100325.44
2023-10-24T19:48:37.982Z,100333.50
2023-10-24T19:51:05.368Z,100337.53
2023-10-24T19:53:38.270Z,100321.72
2023-10-24T19:56:06.765Z,100323.09
2023-10-24T19:58:37.078Z,100332.97
2023-10-24T20:01:05.912Z,100326.31
2023-10-24T20:03:32.793Z,100331.66
2023-10-24T20:06:01.477Z,100332.72
2023-10-24T20:08:28.689Z,100329.53
2023-10-24T20:11:36.544Z,100336.22
2023-10-24T20:13:42.357Z,100333.84
2023-10-24T20:16:12.893Z,100335.97
2023-10-24T20:18:39.656Z,100338.91
2023-10-24T20:21:06.514Z,100334.66
2023-10-24T20:23:33.390Z,100343.22
2023-10-24T20:26:00.346Z,100336.25
2023-10-24T20:28:26.826Z,100331.44
2023-10-24T20:30:53.343Z,100326.63
2023-10-24T20:33:19.824Z,100322.91
2023-10-24T20:35:46.267Z,100324.25
2023-10-24T20:38:12.723Z,100315.69
2023-10-24T20:40:39.494Z,100319.97
2023-10-24T20:43:06.077Z,100309.03
2023-10-24T20:45:32.717Z,100312.50
2023-10-24T20:47:59.320Z,100311.44
2023-10-24T20:50:26.680Z,100318.66
2023-10-24T20:52:53.184Z,100310.13
2023-10-24T20:55:19.697Z,100311.19
2023-10-24T20:57:46.364Z,100313.88
2023-10-24T21:00:13.236Z,100311.44
2023-10-24T21:02:39.779Z,100309.06
2023-10-24T21:05:06.576Z,100301.31
2023-10-24T21:07:33.964Z,100309.59
2023-10-24T21:10:00.504Z,100307.19
2023-10-24T21:12:27.097Z,100311.47
2023-10-24T21:14:53.778Z,100318.41
2023-10-24T21:17:20.629Z,100320.03
2023-10-24T21:19:47.176Z,100323.50
2023-10-24T21:22:13.782Z,100321.63
2023-10-24T21:24:40.318Z,100319.75
2023-10-24T21:27:06.910Z,100317.34
2023-10-24T21:29:33.447Z,100319.22
2023-10-24T21:32:00.020Z,100320.56
2023-10-24T21:34:26.568Z,100320.84
2023-10-24T21:36:53.076Z,100324.84
2023-10-24T21:39:20.706Z,100323.78
2023-10-24T21:41:47.231Z,100324.03
2023-10-24T21:44:13.768Z,100325.38
2023-10-24T21:46:40.414Z,100323.25
2023-10-24T21:49:08.328Z,100318.97
2023-10-24T21:51:35.085Z,100314.19
2023-10-24T21:54:01.678Z,100316.31
2023-10-24T21:56:28.371Z,100315.78
2023-10-24T21:58:54.866Z,100309.38
2023-10-24T22:01:22.076Z,100307.75
2023-10-24T22:03:48.916Z,100304.31
2023-10-24T22:06:15.599Z,100302.94
2023-10-24T22:08:42.112Z,100304.03
2023-10-24T22:11:08.795Z,100300.81
2023-10-24T22:13:35.388Z,100305.34
2023-10-24T22:16:02.499Z,100301.34
2023-10-24T22:18:29.243Z,100309.59
2023-10-24T22:20:56.523Z,100307.22
2023-10-24T22:23:23.381Z,100306.41
2023-10-24T22:25:51.218Z,100313.06
2023-10-24T22:28:17.702Z,100315.22
2023-10-24T22:30:44.218Z,100306.66
2023-10-24T22:33:10.868Z,100316.84
2023-10-24T22:35:38.436Z,100314.16
2023-10-24T22:38:04.942Z,100314.41
2023-10-24T22:40:31.458Z,100313.09
2023-10-24T22:42:58.360Z,100315.75
2023-10-24T22:45:25.946Z,100316.53
2023-10-24T22:47:53.179Z,100317.09
2023-10-24T22:50:21.893Z,100309.59
2023-10-24T22:52:48.932Z,100309.59
2023-10-24T22:55:15.542Z,100309.06
2023-10-24T22:57:42.632Z,100309.34
2023-10-24T23:00:10.000Z,100309.34
2023-10-24T23:02:36.603Z,100305.63
2023-10-24T23:05:03.298Z,100310.94
2023-10-24T23:07:30.485Z,100312.53
2023-10-24T23:09:58.736Z,100309.84
2023-10-24T23:12:25.258Z,100308.78
2023-10-24T23:14:51.705Z,100305.34
2023-10-24T23:17:18.149Z,100314.13
2023-10-24T23:19:44.729Z,100309.34
2023-10-24T23:22:11.299Z,100308.28
2023-10-24T23:24:37.823Z,100311.47
2023-10-24T23:27:04.734Z,100312.53
2023-10-24T23:29:31.244Z,100313.63
2023-10-24T23:31:57.733Z,100314.69
2023-10-24T23:34:24.366Z,100309.88
2023-10-24T23:36:50.955Z,100305.88
2023-10-24T23:39:17.943Z,100308.00
2023-10-24T23:41:44.423Z,100309.84
2023-10-24T23:44:10.886Z,100310.13
2023-10-24T23:46:37.441Z,100307.19
2023-10-24T23:49:04.073Z,100304.53
2023-10-24T23:51:30.676Z,100311.72
2023-10-24T23:53:57.266Z,100310.94
2023-10-24T23:56:23.751Z,100303.16
2023-10-24T23:58:50.224Z,100306.91
